sensor_id;sensor_type;location;lat;lon;timestamp;P1;durP1;ratioP1;P2;durP2;ratioP2
27375;SDS011;14844;51.302;6.354;2023-03-14T00:02:39;8.23;;;2.03;;
27375;SDS011;14844;51.302;6.354;2023-03-14T00:06:04;11.68;;;2.15;;
27375;SDS011;14844;51.302;6.354;2023-03-14T00:08:33;12.85;;;2.90;;
27375;SDS011;14844;51.302;6.354;2023-03-14T00:13:36;10.70;;;2.40;;
27375;SDS011;14844;51.302;6.354;2023-03-14T00:16:11;13.80;;;2.60;;
27375;SDS011;14844;51.302;6.354;2023-03-14T00:19:01;10.15;;;2.60;;
27375;SDS011;14844;51.302;6.354;2023-03-14T00:30:41;11.40;;;1.90;;
27375;SDS011;14844;51.302;6.354;2023-03-14T00:33:06;12.45;;;2.50;;
27375;SDS011;14844;51.302;6.354;2023-03-14T00:35:32;12.95;;;1.90;;
27375;SDS011;14844;51.302;6.354;2023-03-14T00:37:57;9.80;;;2.05;;
27375;SDS011;14844;51.302;6.354;2023-03-14T00:40:23;14.00;;;2.13;;
27375;SDS011;14844;51.302;6.354;2023-03-14T00:42:49;8.13;;;1.90;;
27375;SDS011;14844;51.302;6.354;2023-03-14T00:45:14;10.13;;;1.85;;
27375;SDS011;14844;51.302;6.354;2023-03-14T00:47:40;15.23;;;2.42;;
27375;SDS011;14844;51.302;6.354;2023-03-14T00:50:10;6.85;;;1.60;;
27375;SDS011;14844;51.302;6.354;2023-03-14T00:52:37;8.95;;;1.48;;
27375;SDS011;14844;51.302;6.354;2023-03-14T00:55:03;11.95;;;2.17;;
27375;SDS011;14844;51.302;6.354;2023-03-14T00:57:29;8.85;;;1.98;;
27375;SDS011;14844;51.302;6.354;2023-03-14T00:59:54;12.20;;;2.10;;
27375;SDS011;14844;51.302;6.354;2023-03-14T01:02:20;11.68;;;2.22;;
27375;SDS011;14844;51.302;6.354;2023-03-14T01:04:49;11.23;;;1.75;;
27375;SDS011;14844;51.302;6.354;2023-03-14T01:07:15;9.55;;;1.92;;
27375;SDS011;14844;51.302;6.354;2023-03-14T01:09:44;12.65;;;1.70;;
27375;SDS011;14844;51.302;6.354;2023-03-14T01:12:20;12.40;;;1.98;;
27375;SDS011;14844;51.302;6.354;2023-03-14T01:15:09;11.25;;;1.50;;
27375;SDS011;14844;51.302;6.354;2023-03-14T01:17:35;6.43;;;1.45;;
27375;SDS011;14844;51.302;6.354;2023-03-14T01:20:03;7.28;;;1.65;;
27375;SDS011;14844;51.302;6.354;2023-03-14T01:25:00;7.85;;;1.85;;
27375;SDS011;14844;51.302;6.354;2023-03-14T01:27:26;8.50;;;1.85;;
27375;SDS011;14844;51.302;6.354;2023-03-14T01:29:52;9.57;;;1.40;;
27375;SDS011;14844;51.302;6.354;2023-03-14T01:32:18;11.48;;;1.67;;
27375;SDS011;14844;51.302;6.354;2023-03-14T01:34:43;11.32;;;1.67;;
27375;SDS011;14844;51.302;6.354;2023-03-14T01:37:09;13.07;;;1.80;;
27375;SDS011;14844;51.302;6.354;2023-03-14T01:39:36;8.27;;;1.65;;
27375;SDS011;14844;51.302;6.354;2023-03-14T01:42:02;8.50;;;1.50;;
27375;SDS011;14844;51.302;6.354;2023-03-14T01:44:28;11.05;;;1.67;;
27375;SDS011;14844;51.302;6.354;2023-03-14T01:47:10;9.15;;;1.90;;
27375;SDS011;14844;51.302;6.354;2023-03-14T01:49:36;8.52;;;1.88;;
27375;SDS011;14844;51.302;6.354;2023-03-14T01:52:03;9.90;;;1.70;;
27375;SDS011;14844;51.302;6.354;2023-03-14T01:57:11;8.52;;;1.30;;
27375;SDS011;14844;51.302;6.354;2023-03-14T01:59:42;11.70;;;1.80;;
27375;SDS011;14844;51.302;6.354;2023-03-14T02:02:11;9.05;;;1.83;;
27375;SDS011;14844;51.302;6.354;2023-03-14T02:04:39;8.23;;;1.67;;
27375;SDS011;14844;51.302;6.354;2023-03-14T02:07:16;10.52;;;1.70;;
27375;SDS011;14844;51.302;6.354;2023-03-14T02:10:01;10.55;;;2.15;;
27375;SDS011;14844;51.302;6.354;2023-03-14T02:12:29;12.80;;;2.30;;
27375;SDS011;14844;51.302;6.354;2023-03-14T02:14:55;10.15;;;1.95;;
27375;SDS011;14844;51.302;6.354;2023-03-14T02:17:20;11.30;;;2.35;;
27375;SDS011;14844;51.302;6.354;2023-03-14T02:22:34;15.10;;;2.17;;
27375;SDS011;14844;51.302;6.354;2023-03-14T02:27:56;12.35;;;2.30;;
27375;SDS011;14844;51.302;6.354;2023-03-14T02:30:24;14.07;;;2.42;;
27375;SDS011;14844;51.302;6.354;2023-03-14T02:32:53;12.32;;;2.15;;
27375;SDS011;14844;51.302;6.354;2023-03-14T02:35:23;15.85;;;2.33;;
27375;SDS011;14844;51.302;6.354;2023-03-14T02:37:53;14.15;;;2.42;;
27375;SDS011;14844;51.302;6.354;2023-03-14T02:40:37;15.13;;;2.30;;
27375;SDS011;14844;51.302;6.354;2023-03-14T02:43:03;13.18;;;2.33;;
27375;SDS011;14844;51.302;6.354;2023-03-14T02:45:32;14.02;;;2.15;;
27375;SDS011;14844;51.302;6.354;2023-03-14T02:48:11;20.80;;;3.08;;
27375;SDS011;14844;51.302;6.354;2023-03-14T02:50:43;10.73;;;2.08;;
27375;SDS011;14844;51.302;6.354;2023-03-14T02:53:12;11.52;;;2.30;;
27375;SDS011;14844;51.302;6.354;2023-03-14T02:55:44;14.80;;;2.40;;
27375;SDS011;14844;51.302;6.354;2023-03-14T02:58:10;13.13;;;2.28;;
27375;SDS011;14844;51.302;6.354;2023-03-14T03:00:36;16.02;;;2.10;;
27375;SDS011;14844;51.302;6.354;2023-03-14T03:03:01;9.95;;;1.85;;
27375;SDS011;14844;51.302;6.354;2023-03-14T03:05:27;12.55;;;2.35;;
27375;SDS011;14844;51.302;6.354;2023-03-14T03:07:55;13.25;;;1.90;;
27375;SDS011;14844;51.302;6.354;2023-03-14T03:10:22;18.20;;;2.58;;
27375;SDS011;14844;51.302;6.354;2023-03-14T03:12:48;11.00;;;2.20;;
27375;SDS011;14844;51.302;6.354;2023-03-14T03:15:13;11.50;;;2.30;;
27375;SDS011;14844;51.302;6.354;2023-03-14T03:17:39;16.17;;;2.28;;
27375;SDS011;14844;51.302;6.354;2023-03-14T03:20:05;12.57;;;1.80;;
27375;SDS011;14844;51.302;6.354;2023-03-14T03:22:34;13.82;;;3.05;;
27375;SDS011;14844;51.302;6.354;2023-03-14T03:25:00;13.77;;;2.75;;
27375;SDS011;14844;51.302;6.354;2023-03-14T03:27:26;12.68;;;2.30;;
27375;SDS011;14844;51.302;6.354;2023-03-14T03:29:56;13.13;;;2.28;;
27375;SDS011;14844;51.302;6.354;2023-03-14T03:32:22;12.45;;;2.45;;
27375;SDS011;14844;51.302;6.354;2023-03-14T03:34:50;13.13;;;2.50;;
27375;SDS011;14844;51.302;6.354;2023-03-14T03:37:16;12.20;;;2.13;;
27375;SDS011;14844;51.302;6.354;2023-03-14T03:39:42;11.55;;;2.10;;
27375;SDS011;14844;51.302;6.354;2023-03-14T03:42:08;9.80;;;2.03;;
27375;SDS011;14844;51.302;6.354;2023-03-14T03:44:34;12.85;;;2.28;;
27375;SDS011;14844;51.302;6.354;2023-03-14T03:47:00;11.23;;;1.90;;
27375;SDS011;14844;51.302;6.354;2023-03-14T03:49:29;16.02;;;2.53;;
27375;SDS011;14844;51.302;6.354;2023-03-14T03:52:30;11.13;;;2.00;;
27375;SDS011;14844;51.302;6.354;2023-03-14T03:58:27;14.98;;;2.50;;
27375;SDS011;14844;51.302;6.354;2023-03-14T04:00:53;12.95;;;2.00;;
27375;SDS011;14844;51.302;6.354;2023-03-14T04:03:19;13.32;;;2.08;;
27375;SDS011;14844;51.302;6.354;2023-03-14T04:05:45;11.48;;;1.98;;
27375;SDS011;14844;51.302;6.354;2023-03-14T04:08:10;14.43;;;1.50;;
27375;SDS011;14844;51.302;6.354;2023-03-14T04:10:36;12.50;;;1.67;;
27375;SDS011;14844;51.302;6.354;2023-03-14T04:13:02;12.50;;;1.92;;
27375;SDS011;14844;51.302;6.354;2023-03-14T04:15:30;11.80;;;1.77;;
27375;SDS011;14844;51.302;6.354;2023-03-14T04:17:56;8.02;;;1.20;;
27375;SDS011;14844;51.302;6.354;2023-03-14T04:20:23;10.75;;;1.35;;
27375;SDS011;14844;51.302;6.354;2023-03-14T04:22:48;6.78;;;1.10;;
27375;SDS011;14844;51.302;6.354;2023-03-14T04:25:14;5.43;;;1.08;;
27375;SDS011;14844;51.302;6.354;2023-03-14T04:27:42;5.88;;;1.20;;
27375;SDS011;14844;51.302;6.354;2023-03-14T04:30:09;6.63;;;1.60;;
27375;SDS011;14844;51.302;6.354;2023-03-14T04:32:35;10.50;;;1.38;;
27375;SDS011;14844;51.302;6.354;2023-03-14T04:35:02;8.77;;;1.90;;
27375;SDS011;14844;51.302;6.354;2023-03-14T04:37:30;8.82;;;1.33;;
27375;SDS011;14844;51.302;6.354;2023-03-14T04:40:01;11.68;;;1.50;;
27375;SDS011;14844;51.302;6.354;2023-03-14T04:42:29;9.38;;;1.40;;
27375;SDS011;14844;51.302;6.354;2023-03-14T04:44:54;6.13;;;1.10;;
27375;SDS011;14844;51.302;6.354;2023-03-14T04:47:20;9.75;;;1.50;;
27375;SDS011;14844;51.302;6.354;2023-03-14T04:49:45;12.38;;;2.08;;
27375;SDS011;14844;51.302;6.354;2023-03-14T04:52:11;7.80;;;1.20;;
27375;SDS011;14844;51.302;6.354;2023-03-14T04:54:36;7.07;;;1.00;;
27375;SDS011;14844;51.302;6.354;2023-03-14T04:57:02;7.43;;;1.30;;
27375;SDS011;14844;51.302;6.354;2023-03-14T04:59:28;7.47;;;1.38;;
27375;SDS011;14844;51.302;6.354;2023-03-14T05:01:53;6.18;;;1.10;;
27375;SDS011;14844;51.302;6.354;2023-03-14T05:04:25;8.55;;;1.23;;
27375;SDS011;14844;51.302;6.354;2023-03-14T05:06:50;6.70;;;1.45;;
27375;SDS011;14844;51.302;6.354;2023-03-14T05:09:23;6.18;;;1.20;;
27375;SDS011;14844;51.302;6.354;2023-03-14T05:11:52;6.13;;;1.13;;
27375;SDS011;14844;51.302;6.354;2023-03-14T05:14:18;7.93;;;1.48;;
27375;SDS011;14844;51.302;6.354;2023-03-14T05:16:43;9.45;;;2.50;;
27375;SDS011;14844;51.302;6.354;2023-03-14T05:19:09;5.43;;;1.15;;
27375;SDS011;14844;51.302;6.354;2023-03-14T05:21:36;8.80;;;1.30;;
27375;SDS011;14844;51.302;6.354;2023-03-14T05:24:04;4.97;;;1.48;;
27375;SDS011;14844;51.302;6.354;2023-03-14T05:26:30;7.82;;;1.45;;
27375;SDS011;14844;51.302;6.354;2023-03-14T05:32:10;12.68;;;1.92;;
27375;SDS011;14844;51.302;6.354;2023-03-14T05:34:36;7.93;;;1.60;;
27375;SDS011;14844;51.302;6.354;2023-03-14T05:37:01;8.50;;;1.63;;
27375;SDS011;14844;51.302;6.354;2023-03-14T05:39:27;6.95;;;1.60;;
27375;SDS011;14844;51.302;6.354;2023-03-14T05:41:52;6.30;;;1.50;;
27375;SDS011;14844;51.302;6.354;2023-03-14T05:44:20;8.52;;;1.60;;
27375;SDS011;14844;51.302;6.354;2023-03-14T05:46:46;3.15;;;1.17;;
27375;SDS011;14844;51.302;6.354;2023-03-14T05:49:11;4.88;;;1.70;;
27375;SDS011;14844;51.302;6.354;2023-03-14T05:51:37;4.82;;;1.50;;
27375;SDS011;14844;51.302;6.354;2023-03-14T05:54:02;5.78;;;1.33;;
27375;SDS011;14844;51.302;6.354;2023-03-14T05:56:28;4.38;;;1.38;;
27375;SDS011;14844;51.302;6.354;2023-03-14T05:58:54;5.65;;;1.20;;
27375;SDS011;14844;51.302;6.354;2023-03-14T06:01:19;5.70;;;1.58;;
27375;SDS011;14844;51.302;6.354;2023-03-14T06:03:49;3.58;;;1.48;;
27375;SDS011;14844;51.302;6.354;2023-03-14T06:06:15;5.88;;;1.75;;
27375;SDS011;14844;51.302;6.354;2023-03-14T06:08:41;4.22;;;1.40;;
27375;SDS011;14844;51.302;6.354;2023-03-14T06:11:07;4.82;;;1.80;;
27375;SDS011;14844;51.302;6.354;2023-03-14T06:13:35;6.43;;;1.70;;
27375;SDS011;14844;51.302;6.354;2023-03-14T06:16:02;7.07;;;1.90;;
27375;SDS011;14844;51.302;6.354;2023-03-14T06:18:28;6.53;;;2.47;;
27375;SDS011;14844;51.302;6.354;2023-03-14T06:20:55;4.03;;;2.25;;
27375;SDS011;14844;51.302;6.354;2023-03-14T06:23:22;6.00;;;2.17;;
27375;SDS011;14844;51.302;6.354;2023-03-14T06:25:48;4.75;;;2.20;;
27375;SDS011;14844;51.302;6.354;2023-03-14T06:28:15;4.65;;;2.40;;
27375;SDS011;14844;51.302;6.354;2023-03-14T06:30:41;4.82;;;2.30;;
27375;SDS011;14844;51.302;6.354;2023-03-14T06:33:07;4.78;;;2.70;;
27375;SDS011;14844;51.302;6.354;2023-03-14T06:35:33;5.15;;;2.30;;
27375;SDS011;14844;51.302;6.354;2023-03-14T06:37:59;7.18;;;2.45;;
27375;SDS011;14844;51.302;6.354;2023-03-14T06:40:27;4.20;;;2.17;;
27375;SDS011;14844;51.302;6.354;2023-03-14T06:42:52;4.25;;;2.30;;
27375;SDS011;14844;51.302;6.354;2023-03-14T06:45:18;5.25;;;2.20;;
27375;SDS011;14844;51.302;6.354;2023-03-14T06:47:44;6.00;;;2.22;;
27375;SDS011;14844;51.302;6.354;2023-03-14T06:50:09;5.90;;;2.10;;
27375;SDS011;14844;51.302;6.354;2023-03-14T06:52:35;3.65;;;2.20;;
27375;SDS011;14844;51.302;6.354;2023-03-14T06:55:02;4.32;;;2.08;;
27375;SDS011;14844;51.302;6.354;2023-03-14T06:57:28;3.97;;;2.35;;
27375;SDS011;14844;51.302;6.354;2023-03-14T06:59:54;4.70;;;2.55;;
27375;SDS011;14844;51.302;6.354;2023-03-14T07:02:22;4.18;;;2.40;;
27375;SDS011;14844;51.302;6.354;2023-03-14T07:04:48;4.03;;;2.45;;
27375;SDS011;14844;51.302;6.354;2023-03-14T07:07:13;4.40;;;2.80;;
27375;SDS011;14844;51.302;6.354;2023-03-14T07:09:39;4.80;;;2.90;;
27375;SDS011;14844;51.302;6.354;2023-03-14T07:12:04;3.35;;;2.53;;
27375;SDS011;14844;51.302;6.354;2023-03-14T07:14:30;4.50;;;2.70;;
27375;SDS011;14844;51.302;6.354;2023-03-14T07:16:56;9.38;;;2.80;;
27375;SDS011;14844;51.302;6.354;2023-03-14T07:19:27;5.68;;;2.80;;
27375;SDS011;14844;51.302;6.354;2023-03-14T07:21:54;3.30;;;2.78;;
27375;SDS011;14844;51.302;6.354;2023-03-14T07:24:21;4.72;;;3.45;;
27375;SDS011;14844;51.302;6.354;2023-03-14T07:26:46;5.25;;;3.80;;
27375;SDS011;14844;51.302;6.354;2023-03-14T07:29:13;6.18;;;3.92;;
27375;SDS011;14844;51.302;6.354;2023-03-14T07:31:40;5.70;;;4.10;;
27375;SDS011;14844;51.302;6.354;2023-03-14T07:34:05;6.85;;;3.75;;
27375;SDS011;14844;51.302;6.354;2023-03-14T07:36:32;6.97;;;3.72;;
27375;SDS011;14844;51.302;6.354;2023-03-14T07:38:58;5.53;;;4.13;;
27375;SDS011;14844;51.302;6.354;2023-03-14T07:41:23;7.20;;;4.28;;
27375;SDS011;14844;51.302;6.354;2023-03-14T07:43:50;12.05;;;5.07;;
27375;SDS011;14844;51.302;6.354;2023-03-14T07:46:19;7.35;;;4.40;;
27375;SDS011;14844;51.302;6.354;2023-03-14T07:48:44;6.15;;;4.13;;
27375;SDS011;14844;51.302;6.354;2023-03-14T07:51:12;6.47;;;4.07;;
27375;SDS011;14844;51.302;6.354;2023-03-14T07:53:38;4.18;;;3.70;;
27375;SDS011;14844;51.302;6.354;2023-03-14T07:56:05;6.25;;;4.43;;
27375;SDS011;14844;51.302;6.354;2023-03-14T07:58:31;5.47;;;4.20;;
27375;SDS011;14844;51.302;6.354;2023-03-14T08:00:58;5.45;;;3.97;;
27375;SDS011;14844;51.302;6.354;2023-03-14T08:03:24;4.97;;;3.67;;
27375;SDS011;14844;51.302;6.354;2023-03-14T08:05:50;5.60;;;3.60;;
27375;SDS011;14844;51.302;6.354;2023-03-14T08:08:16;7.88;;;4.10;;
27375;SDS011;14844;51.302;6.354;2023-03-14T08:10:42;7.55;;;4.47;;
27375;SDS011;14844;51.302;6.354;2023-03-14T08:13:08;7.38;;;4.20;;
27375;SDS011;14844;51.302;6.354;2023-03-14T08:15:36;9.27;;;4.20;;
27375;SDS011;14844;51.302;6.354;2023-03-14T08:18:02;14.00;;;4.88;;
27375;SDS011;14844;51.302;6.354;2023-03-14T08:20:28;7.57;;;4.70;;
27375;SDS011;14844;51.302;6.354;2023-03-14T08:22:58;9.93;;;5.32;;
27375;SDS011;14844;51.302;6.354;2023-03-14T08:25:25;7.85;;;5.95;;
27375;SDS011;14844;51.302;6.354;2023-03-14T08:27:51;10.10;;;6.57;;
27375;SDS011;14844;51.302;6.354;2023-03-14T08:30:18;10.10;;;6.82;;
27375;SDS011;14844;51.302;6.354;2023-03-14T08:32:46;8.10;;;5.50;;
27375;SDS011;14844;51.302;6.354;2023-03-14T08:35:12;7.55;;;5.53;;
27375;SDS011;14844;51.302;6.354;2023-03-14T08:37:38;7.75;;;4.10;;
27375;SDS011;14844;51.302;6.354;2023-03-14T08:40:04;7.32;;;4.03;;
27375;SDS011;14844;51.302;6.354;2023-03-14T08:42:35;5.22;;;3.25;;
27375;SDS011;14844;51.302;6.354;2023-03-14T08:45:01;5.20;;;3.28;;
27375;SDS011;14844;51.302;6.354;2023-03-14T08:47:27;16.75;;;2.50;;
27375;SDS011;14844;51.302;6.354;2023-03-14T08:49:53;2.22;;;0.70;;
27375;SDS011;14844;51.302;6.354;2023-03-14T08:52:19;2.85;;;0.70;;
27375;SDS011;14844;51.302;6.354;2023-03-14T08:54:44;8.93;;;0.82;;
27375;SDS011;14844;51.302;6.354;2023-03-14T08:57:10;1.98;;;0.40;;
27375;SDS011;14844;51.302;6.354;2023-03-14T08:59:36;3.42;;;0.52;;
27375;SDS011;14844;51.302;6.354;2023-03-14T09:02:01;1.50;;;0.55;;
27375;SDS011;14844;51.302;6.354;2023-03-14T09:04:28;2.33;;;0.50;;
27375;SDS011;14844;51.302;6.354;2023-03-14T09:06:57;2.35;;;0.80;;
27375;SDS011;14844;51.302;6.354;2023-03-14T09:09:24;1.73;;;0.90;;
27375;SDS011;14844;51.302;6.354;2023-03-14T09:11:52;2.25;;;1.20;;
27375;SDS011;14844;51.302;6.354;2023-03-14T09:14:17;4.80;;;1.80;;
27375;SDS011;14844;51.302;6.354;2023-03-14T09:16:43;5.25;;;1.80;;
27375;SDS011;14844;51.302;6.354;2023-03-14T09:19:09;4.35;;;1.90;;
27375;SDS011;14844;51.302;6.354;2023-03-14T09:21:34;3.08;;;1.70;;
27375;SDS011;14844;51.302;6.354;2023-03-14T09:24:00;3.47;;;1.42;;
27375;SDS011;14844;51.302;6.354;2023-03-14T09:26:26;4.38;;;2.13;;
27375;SDS011;14844;51.302;6.354;2023-03-14T09:28:51;2.33;;;1.10;;
27375;SDS011;14844;51.302;6.354;2023-03-14T09:31:17;4.40;;;1.40;;
27375;SDS011;14844;51.302;6.354;2023-03-14T09:33:43;3.67;;;1.40;;
27375;SDS011;14844;51.302;6.354;2023-03-14T09:36:09;3.50;;;1.50;;
27375;SDS011;14844;51.302;6.354;2023-03-14T09:38:35;2.78;;;1.40;;
27375;SDS011;14844;51.302;6.354;2023-03-14T09:41:03;5.63;;;1.60;;
27375;SDS011;14844;51.302;6.354;2023-03-14T09:43:37;3.00;;;1.98;;
27375;SDS011;14844;51.302;6.354;2023-03-14T09:46:02;5.45;;;2.20;;
27375;SDS011;14844;51.302;6.354;2023-03-14T09:48:30;7.03;;;2.50;;
27375;SDS011;14844;51.302;6.354;2023-03-14T09:50:58;5.00;;;2.53;;
27375;SDS011;14844;51.302;6.354;2023-03-14T09:53:44;5.82;;;2.13;;
27375;SDS011;14844;51.302;6.354;2023-03-14T09:56:17;4.88;;;2.22;;
27375;SDS011;14844;51.302;6.354;2023-03-14T09:58:54;3.92;;;2.08;;
27375;SDS011;14844;51.302;6.354;2023-03-14T10:01:27;4.90;;;2.28;;
27375;SDS011;14844;51.302;6.354;2023-03-14T10:03:56;5.07;;;2.45;;
27375;SDS011;14844;51.302;6.354;2023-03-14T10:06:25;3.78;;;1.70;;
27375;SDS011;14844;51.302;6.354;2023-03-14T10:08:52;5.68;;;2.17;;
27375;SDS011;14844;51.302;6.354;2023-03-14T10:11:20;6.75;;;2.30;;
27375;SDS011;14844;51.302;6.354;2023-03-14T10:13:49;7.65;;;3.25;;
27375;SDS011;14844;51.302;6.354;2023-03-14T10:16:30;6.35;;;2.90;;
27375;SDS011;14844;51.302;6.354;2023-03-14T10:19:05;5.90;;;3.80;;
27375;SDS011;14844;51.302;6.354;2023-03-14T10:21:53;16.58;;;3.30;;
27375;SDS011;14844;51.302;6.354;2023-03-14T10:24:30;9.32;;;2.85;;
27375;SDS011;14844;51.302;6.354;2023-03-14T10:27:02;5.22;;;2.95;;
27375;SDS011;14844;51.302;6.354;2023-03-14T10:29:33;8.05;;;3.90;;
27375;SDS011;14844;51.302;6.354;2023-03-14T10:32:00;6.90;;;3.20;;
27375;SDS011;14844;51.302;6.354;2023-03-14T10:34:33;3.95;;;1.88;;
27375;SDS011;14844;51.302;6.354;2023-03-14T10:39:58;5.40;;;1.85;;
27375;SDS011;14844;51.302;6.354;2023-03-14T10:42:34;10.32;;;2.72;;
27375;SDS011;14844;51.302;6.354;2023-03-14T10:45:21;5.43;;;2.08;;
27375;SDS011;14844;51.302;6.354;2023-03-14T10:47:57;12.20;;;2.33;;
27375;SDS011;14844;51.302;6.354;2023-03-14T10:50:47;6.53;;;2.20;;
27375;SDS011;14844;51.302;6.354;2023-03-14T10:56:19;11.38;;;3.75;;
27375;SDS011;14844;51.302;6.354;2023-03-14T10:58:50;11.40;;;3.45;;
27375;SDS011;14844;51.302;6.354;2023-03-14T11:07:58;9.27;;;2.60;;
27375;SDS011;14844;51.302;6.354;2023-03-14T11:10:11;8.25;;;2.47;;
27375;SDS011;14844;51.302;6.354;2023-03-14T11:22:20;4.97;;;1.58;;
27375;SDS011;14844;51.302;6.354;2023-03-14T11:29:46;9.07;;;1.63;;
27375;SDS011;14844;51.302;6.354;2023-03-14T11:35:17;5.95;;;1.17;;
27375;SDS011;14844;51.302;6.354;2023-03-14T11:37:51;3.53;;;0.73;;
27375;SDS011;14844;51.302;6.354;2023-03-14T11:40:28;9.15;;;1.20;;
27375;SDS011;14844;51.302;6.354;2023-03-14T11:42:59;8.55;;;1.33;;
27375;SDS011;14844;51.302;6.354;2023-03-14T11:45:35;9.23;;;1.23;;
27375;SDS011;14844;51.302;6.354;2023-03-14T11:48:07;9.45;;;1.45;;
27375;SDS011;14844;51.302;6.354;2023-03-14T11:50:54;5.43;;;1.20;;
27375;SDS011;14844;51.302;6.354;2023-03-14T11:53:26;8.40;;;1.33;;
27375;SDS011;14844;51.302;6.354;2023-03-14T11:56:06;6.88;;;1.25;;
27375;SDS011;14844;51.302;6.354;2023-03-14T12:02:37;10.27;;;1.60;;
27375;SDS011;14844;51.302;6.354;2023-03-14T12:05:23;12.02;;;1.55;;
27375;SDS011;14844;51.302;6.354;2023-03-14T12:13:15;11.45;;;2.13;;
27375;SDS011;14844;51.302;6.354;2023-03-14T12:15:47;9.60;;;1.48;;
27375;SDS011;14844;51.302;6.354;2023-03-14T12:18:20;12.30;;;1.90;;
27375;SDS011;14844;51.302;6.354;2023-03-14T12:20:56;15.85;;;2.10;;
27375;SDS011;14844;51.302;6.354;2023-03-14T12:23:26;13.45;;;1.88;;
27375;SDS011;14844;51.302;6.354;2023-03-14T12:26:13;16.40;;;2.17;;
27375;SDS011;14844;51.302;6.354;2023-03-14T12:28:48;16.95;;;2.42;;
27375;SDS011;14844;51.302;6.354;2023-03-14T12:34:03;16.57;;;3.07;;
27375;SDS011;14844;51.302;6.354;2023-03-14T12:42:11;14.65;;;2.05;;
27375;SDS011;14844;51.302;6.354;2023-03-14T12:44:42;27.10;;;3.38;;
27375;SDS011;14844;51.302;6.354;2023-03-14T12:49:44;16.95;;;2.47;;
27375;SDS011;14844;51.302;6.354;2023-03-14T12:52:36;23.80;;;2.58;;
27375;SDS011;14844;51.302;6.354;2023-03-14T12:57:50;31.02;;;3.53;;
27375;SDS011;14844;51.302;6.354;2023-03-14T13:00:32;31.98;;;3.53;;
27375;SDS011;14844;51.302;6.354;2023-03-14T13:03:00;29.15;;;5.15;;
27375;SDS011;14844;51.302;6.354;2023-03-14T13:05:40;31.33;;;5.03;;
27375;SDS011;14844;51.302;6.354;2023-03-14T13:11:01;24.40;;;4.03;;
27375;SDS011;14844;51.302;6.354;2023-03-14T13:13:29;27.67;;;3.83;;
27375;SDS011;14844;51.302;6.354;2023-03-14T13:15:55;15.63;;;2.35;;
27375;SDS011;14844;51.302;6.354;2023-03-14T13:21:22;24.88;;;3.42;;
27375;SDS011;14844;51.302;6.354;2023-03-14T13:23:57;23.83;;;3.00;;
27375;SDS011;14844;51.302;6.354;2023-03-14T13:26:42;27.60;;;3.33;;
27375;SDS011;14844;51.302;6.354;2023-03-14T13:29:30;30.05;;;3.65;;
27375;SDS011;14844;51.302;6.354;2023-03-14T13:32:01;37.35;;;5.00;;
27375;SDS011;14844;51.302;6.354;2023-03-14T13:34:37;38.17;;;3.80;;
27375;SDS011;14844;51.302;6.354;2023-03-14T13:37:03;36.13;;;4.38;;
27375;SDS011;14844;51.302;6.354;2023-03-14T13:39:31;32.78;;;3.97;;
27375;SDS011;14844;51.302;6.354;2023-03-14T13:41:58;40.33;;;4.13;;
27375;SDS011;14844;51.302;6.354;2023-03-14T13:44:34;34.25;;;4.55;;
27375;SDS011;14844;51.302;6.354;2023-03-14T13:47:04;29.65;;;4.25;;
27375;SDS011;14844;51.302;6.354;2023-03-14T13:49:34;34.50;;;4.28;;
27375;SDS011;14844;51.302;6.354;2023-03-14T13:52:02;34.97;;;4.75;;
27375;SDS011;14844;51.302;6.354;2023-03-14T13:54:29;33.15;;;5.18;;
27375;SDS011;14844;51.302;6.354;2023-03-14T13:57:00;24.38;;;3.38;;
27375;SDS011;14844;51.302;6.354;2023-03-14T13:59:29;28.17;;;3.75;;
27375;SDS011;14844;51.302;6.354;2023-03-14T14:02:14;23.60;;;3.70;;
27375;SDS011;14844;51.302;6.354;2023-03-14T14:04:40;26.98;;;3.92;;
27375;SDS011;14844;51.302;6.354;2023-03-14T14:07:09;25.08;;;3.72;;
27375;SDS011;14844;51.302;6.354;2023-03-14T14:09:50;26.13;;;3.33;;
27375;SDS011;14844;51.302;6.354;2023-03-14T14:12:21;20.95;;;2.75;;
27375;SDS011;14844;51.302;6.354;2023-03-14T14:15:04;13.00;;;2.70;;
27375;SDS011;14844;51.302;6.354;2023-03-14T14:17:39;15.45;;;2.38;;
27375;SDS011;14844;51.302;6.354;2023-03-14T14:20:23;16.10;;;2.97;;
27375;SDS011;14844;51.302;6.354;2023-03-14T14:23:13;22.42;;;2.83;;
27375;SDS011;14844;51.302;6.354;2023-03-14T14:25:50;13.93;;;2.33;;
27375;SDS011;14844;51.302;6.354;2023-03-14T14:31:03;19.58;;;2.40;;
27375;SDS011;14844;51.302;6.354;2023-03-14T14:33:38;16.83;;;2.35;;
27375;SDS011;14844;51.302;6.354;2023-03-14T14:36:11;22.90;;;2.65;;
27375;SDS011;14844;51.302;6.354;2023-03-14T14:38:54;15.05;;;1.95;;
27375;SDS011;14844;51.302;6.354;2023-03-14T14:41:30;18.23;;;2.50;;
27375;SDS011;14844;51.302;6.354;2023-03-14T14:44:04;17.60;;;2.50;;
27375;SDS011;14844;51.302;6.354;2023-03-14T14:46:30;13.88;;;2.40;;
27375;SDS011;14844;51.302;6.354;2023-03-14T14:49:02;16.58;;;2.17;;
27375;SDS011;14844;51.302;6.354;2023-03-14T14:51:45;9.45;;;2.03;;
27375;SDS011;14844;51.302;6.354;2023-03-14T14:54:47;17.75;;;4.32;;
27375;SDS011;14844;51.302;6.354;2023-03-14T14:57:21;15.77;;;3.85;;
27375;SDS011;14844;51.302;6.354;2023-03-14T14:59:56;12.60;;;1.83;;
27375;SDS011;14844;51.302;6.354;2023-03-14T15:05:22;10.20;;;1.70;;
27375;SDS011;14844;51.302;6.354;2023-03-14T15:07:49;10.38;;;1.85;;
27375;SDS011;14844;51.302;6.354;2023-03-14T15:10:16;14.55;;;2.38;;
27375;SDS011;14844;51.302;6.354;2023-03-14T15:12:47;9.32;;;2.53;;
27375;SDS011;14844;51.302;6.354;2023-03-14T15:15:13;12.20;;;2.08;;
27375;SDS011;14844;51.302;6.354;2023-03-14T15:17:39;15.20;;;2.05;;
27375;SDS011;14844;51.302;6.354;2023-03-14T15:20:05;15.50;;;2.53;;
27375;SDS011;14844;51.302;6.354;2023-03-14T15:22:35;12.15;;;2.10;;
27375;SDS011;14844;51.302;6.354;2023-03-14T15:25:00;9.90;;;1.55;;
27375;SDS011;14844;51.302;6.354;2023-03-14T15:27:26;8.70;;;1.35;;
27375;SDS011;14844;51.302;6.354;2023-03-14T15:29:55;8.90;;;1.60;;
27375;SDS011;14844;51.302;6.354;2023-03-14T15:32:21;6.47;;;1.63;;
27375;SDS011;14844;51.302;6.354;2023-03-14T15:34:47;10.93;;;1.95;;
27375;SDS011;14844;51.302;6.354;2023-03-14T15:37:14;11.40;;;1.55;;
27375;SDS011;14844;51.302;6.354;2023-03-14T15:39:41;13.38;;;1.50;;
27375;SDS011;14844;51.302;6.354;2023-03-14T15:42:07;10.60;;;1.80;;
27375;SDS011;14844;51.302;6.354;2023-03-14T15:44:34;9.27;;;1.80;;
27375;SDS011;14844;51.302;6.354;2023-03-14T15:47:00;9.40;;;2.47;;
27375;SDS011;14844;51.302;6.354;2023-03-14T15:49:26;10.82;;;1.98;;
27375;SDS011;14844;51.302;6.354;2023-03-14T15:51:52;9.75;;;1.58;;
27375;SDS011;14844;51.302;6.354;2023-03-14T15:54:17;9.38;;;1.45;;
27375;SDS011;14844;51.302;6.354;2023-03-14T15:56:43;8.85;;;1.60;;
27375;SDS011;14844;51.302;6.354;2023-03-14T15:59:09;9.50;;;1.67;;
27375;SDS011;14844;51.302;6.354;2023-03-14T16:01:35;6.78;;;1.60;;
27375;SDS011;14844;51.302;6.354;2023-03-14T16:04:00;11.80;;;1.70;;
27375;SDS011;14844;51.302;6.354;2023-03-14T16:06:27;13.30;;;2.15;;
27375;SDS011;14844;51.302;6.354;2023-03-14T16:08:53;15.05;;;2.38;;
27375;SDS011;14844;51.302;6.354;2023-03-14T16:11:19;12.35;;;1.83;;
27375;SDS011;14844;51.302;6.354;2023-03-14T16:13:45;11.05;;;1.67;;
27375;SDS011;14844;51.302;6.354;2023-03-14T16:16:11;12.15;;;2.22;;
27375;SDS011;14844;51.302;6.354;2023-03-14T16:18:39;12.73;;;2.50;;
27375;SDS011;14844;51.302;6.354;2023-03-14T16:21:06;14.73;;;2.53;;
27375;SDS011;14844;51.302;6.354;2023-03-14T16:23:35;8.45;;;1.65;;
27375;SDS011;14844;51.302;6.354;2023-03-14T16:26:04;10.02;;;1.73;;
27375;SDS011;14844;51.302;6.354;2023-03-14T16:28:32;18.00;;;2.92;;